JST952 YSSY-YBCS
Flight info
| Callsign | JST952 |
|---|---|
| Flight time | 2h 41m |
| Altitude | 34000 |
| Route | TESAT H530 LASUD Q293 AKUMI Q147 VOMPA Q499 NONUM J64 CS |
| Aircraft | A321/M-SDE3FGHIRWY/LB1 |
Departure
| Time | 2026-04-26 23:05 |
|---|---|
| Airport | Sydney Kingsford Smith International Airport (YSSY) |
Arrival
| Time | 2026-04-27 01:47 |
|---|---|
| Airport | Cairns International Airport (YBCS) |
| Time | Latitude | Longitude | Altitude | Speed | Heading |
|---|---|---|---|---|---|
| 2026-04-26 22:34 | -33.93411 | 151.17710 | 29 ft | 0 kts | 99° |
| 2026-04-26 22:52 | -33.93410 | 151.17707 | 30 ft | 2 kts | 99° |
| 2026-04-26 22:52 | -33.93406 | 151.17676 | 30 ft | 4 kts | 99° |
| 2026-04-26 22:52 | -33.93403 | 151.17655 | 30 ft | 4 kts | 99° |
| 2026-04-26 22:52 | -33.93398 | 151.17623 | 30 ft | 4 kts | 99° |
| 2026-04-26 22:53 | -33.93395 | 151.17600 | 30 ft | 0 kts | 99° |
| 2026-04-26 22:56 | -33.93395 | 151.17601 | 30 ft | 1 kts | 99° |
| 2026-04-26 22:56 | -33.93404 | 151.17617 | 30 ft | 3 kts | 136° |
| 2026-04-26 22:56 | -33.93427 | 151.17620 | 30 ft | 4 kts | 188° |
| 2026-04-26 22:57 | -33.93448 | 151.17594 | 30 ft | 6 kts | 246° |
| 2026-04-26 22:57 | -33.93461 | 151.17539 | 30 ft | 8 kts | 258° |
| 2026-04-26 22:57 | -33.93473 | 151.17465 | 29 ft | 10 kts | 257° |
| 2026-04-26 22:57 | -33.93491 | 151.17365 | 27 ft | 14 kts | 258° |
| 2026-04-26 22:58 | -33.93444 | 151.17257 | 27 ft | 16 kts | 305° |
| 2026-04-26 22:58 | -33.93447 | 151.17134 | 29 ft | 14 kts | 248° |
| 2026-04-26 22:58 | -33.93527 | 151.17110 | 29 ft | 13 kts | 168° |
| 2026-04-26 22:58 | -33.93619 | 151.17133 | 29 ft | 14 kts | 168° |
| 2026-04-26 22:59 | -33.93723 | 151.17159 | 29 ft | 17 kts | 168° |
| 2026-04-26 22:59 | -33.93848 | 151.17187 | 29 ft | 20 kts | 168° |
| 2026-04-26 22:59 | -33.93992 | 151.17228 | 29 ft | 22 kts | 167° |
| 2026-04-26 22:59 | -33.94154 | 151.17274 | 28 ft | 25 kts | 168° |
| 2026-04-26 23:00 | -33.94332 | 151.17319 | 30 ft | 27 kts | 168° |
| 2026-04-26 23:00 | -33.94512 | 151.17364 | 30 ft | 26 kts | 169° |
| 2026-04-26 23:00 | -33.94689 | 151.17412 | 30 ft | 26 kts | 168° |
| 2026-04-26 23:00 | -33.94866 | 151.17456 | 29 ft | 26 kts | 169° |
| 2026-04-26 23:01 | -33.95042 | 151.17502 | 29 ft | 26 kts | 167° |
| 2026-04-26 23:01 | -33.95213 | 151.17547 | 29 ft | 25 kts | 167° |
| 2026-04-26 23:01 | -33.95385 | 151.17592 | 29 ft | 25 kts | 167° |
| 2026-04-26 23:01 | -33.95555 | 151.17635 | 30 ft | 25 kts | 168° |
| 2026-04-26 23:02 | -33.95721 | 151.17676 | 30 ft | 24 kts | 167° |
| 2026-04-26 23:02 | -33.95884 | 151.17721 | 30 ft | 24 kts | 168° |
| 2026-04-26 23:02 | -33.96047 | 151.17763 | 30 ft | 24 kts | 168° |
| 2026-04-26 23:02 | -33.96208 | 151.17804 | 30 ft | 24 kts | 168° |
| 2026-04-26 23:03 | -33.96337 | 151.17838 | 30 ft | 11 kts | 168° |
| 2026-04-26 23:03 | -33.96414 | 151.17863 | 30 ft | 11 kts | 150° |
| 2026-04-26 23:03 | -33.96433 | 151.17950 | 30 ft | 12 kts | 78° |
| 2026-04-26 23:03 | -33.96411 | 151.18045 | 30 ft | 11 kts | 51° |
| 2026-04-26 23:04 | -33.96335 | 151.18041 | 29 ft | 13 kts | 348° |
| 2026-04-26 23:04 | -33.96068 | 151.17967 | 27 ft | 74 kts | 348° |
| 2026-04-26 23:04 | -33.95359 | 151.17784 | 29 ft | 133 kts | 347° |
| 2026-04-26 23:04 | -33.94291 | 151.17507 | 38 ft | 179 kts | 346° |
| 2026-04-26 23:05 | -33.93045 | 151.17187 | 522 ft | 184 kts | 346° |
| 2026-04-26 23:05 | -33.91790 | 151.16866 | 1193 ft | 185 kts | 347° |
| 2026-04-26 23:05 | -33.90543 | 151.16489 | 1869 ft | 188 kts | 337° |
| 2026-04-26 23:05 | -33.89447 | 151.15535 | 2120 ft | 205 kts | 317° |
| 2026-04-26 23:06 | -33.88419 | 151.14213 | 2227 ft | 228 kts | 313° |
| 2026-04-26 23:06 | -33.87334 | 151.12712 | 2442 ft | 249 kts | 312° |
| 2026-04-26 23:06 | -33.86174 | 151.11116 | 2977 ft | 256 kts | 313° |
| 2026-04-26 23:06 | -33.84974 | 151.09504 | 3627 ft | 261 kts | 313° |
| 2026-04-26 23:07 | -33.83740 | 151.07882 | 4296 ft | 265 kts | 314° |
| 2026-04-26 23:07 | -33.82471 | 151.06244 | 4915 ft | 270 kts | 314° |
| 2026-04-26 23:07 | -33.81170 | 151.04582 | 5526 ft | 275 kts | 314° |
| 2026-04-26 23:07 | -33.79845 | 151.02906 | 6155 ft | 279 kts | 314° |
| 2026-04-26 23:08 | -33.78495 | 151.01203 | 6779 ft | 282 kts | 314° |
| 2026-04-26 23:08 | -33.77131 | 150.99487 | 7380 ft | 285 kts | 314° |
| 2026-04-26 23:08 | -33.75758 | 150.97761 | 8009 ft | 287 kts | 314° |
| 2026-04-26 23:08 | -33.74369 | 150.96020 | 8630 ft | 290 kts | 314° |
| 2026-04-26 23:09 | -33.72969 | 150.94265 | 9231 ft | 292 kts | 313° |
| 2026-04-26 23:09 | -33.71559 | 150.92495 | 9850 ft | 294 kts | 313° |
| 2026-04-26 23:09 | -33.70126 | 150.90697 | 10263 ft | 306 kts | 313° |
| 2026-04-26 23:09 | -33.68608 | 150.88795 | 10389 ft | 325 kts | 313° |
| 2026-04-26 23:10 | -33.66998 | 150.86778 | 10510 ft | 344 kts | 313° |
| 2026-04-26 23:10 | -33.65317 | 150.84669 | 10799 ft | 355 kts | 313° |
| 2026-04-26 23:10 | -33.63594 | 150.82513 | 11298 ft | 359 kts | 313° |
| 2026-04-26 23:10 | -33.61859 | 150.80352 | 11840 ft | 362 kts | 313° |
| 2026-04-26 23:11 | -33.60103 | 150.78167 | 12398 ft | 364 kts | 313° |
| 2026-04-26 23:11 | -33.58322 | 150.75988 | 12952 ft | 367 kts | 315° |
| 2026-04-26 23:11 | -33.56493 | 150.73833 | 13512 ft | 370 kts | 315° |
| 2026-04-26 23:11 | -33.54630 | 150.71687 | 14059 ft | 373 kts | 316° |
| 2026-04-26 23:12 | -33.52768 | 150.69563 | 14558 ft | 376 kts | 316° |
| 2026-04-26 23:12 | -33.50867 | 150.67393 | 15043 ft | 379 kts | 316° |
| 2026-04-26 23:12 | -33.48955 | 150.65200 | 15530 ft | 382 kts | 316° |
| 2026-04-26 23:12 | -33.47033 | 150.62985 | 16035 ft | 385 kts | 316° |
| 2026-04-26 23:13 | -33.45098 | 150.60753 | 16508 ft | 388 kts | 316° |
| 2026-04-26 23:13 | -33.43150 | 150.58501 | 17019 ft | 390 kts | 316° |
| 2026-04-26 23:13 | -33.41196 | 150.56238 | 17516 ft | 393 kts | 316° |
| 2026-04-26 23:13 | -33.39218 | 150.53949 | 18022 ft | 396 kts | 316° |
| 2026-04-26 23:14 | -33.37229 | 150.51652 | 18509 ft | 399 kts | 316° |
| 2026-04-26 23:14 | -33.35228 | 150.49348 | 18936 ft | 401 kts | 316° |
| 2026-04-26 23:14 | -33.33210 | 150.47023 | 19349 ft | 404 kts | 316° |
| 2026-04-26 23:14 | -33.31180 | 150.44685 | 19772 ft | 406 kts | 316° |
| 2026-04-26 23:15 | -33.29136 | 150.42334 | 20199 ft | 409 kts | 316° |
| 2026-04-26 23:15 | -33.27079 | 150.39971 | 20633 ft | 411 kts | 316° |
| 2026-04-26 23:15 | -33.25011 | 150.37595 | 21046 ft | 414 kts | 316° |
| 2026-04-26 23:15 | -33.22930 | 150.35207 | 21467 ft | 416 kts | 316° |
| 2026-04-26 23:16 | -33.20835 | 150.32809 | 21868 ft | 418 kts | 316° |
| 2026-04-26 23:16 | -33.18736 | 150.30400 | 22260 ft | 421 kts | 316° |
| 2026-04-26 23:16 | -33.16616 | 150.27967 | 22642 ft | 423 kts | 316° |
| 2026-04-26 23:16 | -33.14493 | 150.25536 | 23019 ft | 425 kts | 316° |
| 2026-04-26 23:17 | -33.12353 | 150.23089 | 23393 ft | 427 kts | 316° |
| 2026-04-26 23:17 | -33.10197 | 150.20625 | 23763 ft | 429 kts | 316° |
| 2026-04-26 23:17 | -33.08039 | 150.18161 | 24074 ft | 432 kts | 316° |
| 2026-04-26 23:17 | -33.05863 | 150.15682 | 24367 ft | 434 kts | 316° |
| 2026-04-26 23:18 | -33.03679 | 150.13192 | 24663 ft | 435 kts | 316° |
| 2026-04-26 23:18 | -33.01483 | 150.10694 | 24960 ft | 437 kts | 316° |
| 2026-04-26 23:18 | -32.99276 | 150.08187 | 25245 ft | 439 kts | 316° |
| 2026-04-26 23:18 | -32.97062 | 150.05667 | 25530 ft | 441 kts | 316° |
| 2026-04-26 23:19 | -32.94839 | 150.03136 | 25817 ft | 443 kts | 316° |
| 2026-04-26 23:19 | -32.92634 | 150.00629 | 26092 ft | 445 kts | 316° |
| 2026-04-26 23:19 | -32.90389 | 149.98079 | 26370 ft | 447 kts | 316° |
| 2026-04-26 23:19 | -32.88133 | 149.95520 | 26643 ft | 449 kts | 316° |
| 2026-04-26 23:20 | -32.85866 | 149.92954 | 26916 ft | 451 kts | 316° |
| 2026-04-26 23:20 | -32.83591 | 149.90378 | 27189 ft | 452 kts | 316° |
| 2026-04-26 23:20 | -32.81303 | 149.87786 | 27451 ft | 454 kts | 316° |
| 2026-04-26 23:20 | -32.79012 | 149.85190 | 27713 ft | 456 kts | 316° |
| 2026-04-26 23:21 | -32.76713 | 149.82586 | 27965 ft | 457 kts | 316° |
| 2026-04-26 23:21 | -32.74404 | 149.79974 | 28226 ft | 459 kts | 316° |
| 2026-04-26 23:21 | -32.72083 | 149.77358 | 28474 ft | 461 kts | 316° |
| 2026-04-26 23:21 | -32.69752 | 149.74735 | 28716 ft | 462 kts | 316° |
| 2026-04-26 23:22 | -32.67414 | 149.72100 | 28972 ft | 464 kts | 316° |
| 2026-04-26 23:22 | -32.65069 | 149.69456 | 29224 ft | 466 kts | 316° |
| 2026-04-26 23:22 | -32.62715 | 149.66802 | 29482 ft | 467 kts | 316° |
| 2026-04-26 23:22 | -32.60354 | 149.64146 | 29783 ft | 468 kts | 316° |
| 2026-04-26 23:23 | -32.57983 | 149.61490 | 30124 ft | 468 kts | 316° |
| 2026-04-26 23:23 | -32.55688 | 149.58775 | 30444 ft | 467 kts | 310° |
| 2026-04-26 23:23 | -32.53645 | 149.55848 | 30719 ft | 466 kts | 308° |
| 2026-04-26 23:23 | -32.51597 | 149.52875 | 30993 ft | 465 kts | 308° |
| 2026-04-26 23:24 | -32.49552 | 149.49904 | 31265 ft | 465 kts | 308° |
| 2026-04-26 23:24 | -32.47508 | 149.46937 | 31537 ft | 465 kts | 308° |
| 2026-04-26 23:24 | -32.45465 | 149.43974 | 31808 ft | 464 kts | 308° |
| 2026-04-26 23:24 | -32.43422 | 149.41016 | 32073 ft | 464 kts | 308° |
| 2026-04-26 23:25 | -32.41383 | 149.38070 | 32343 ft | 463 kts | 308° |
| 2026-04-26 23:25 | -32.39340 | 149.35123 | 32602 ft | 463 kts | 308° |
| 2026-04-26 23:25 | -32.37297 | 149.32179 | 32860 ft | 463 kts | 308° |
| 2026-04-26 23:25 | -32.35255 | 149.29239 | 33117 ft | 462 kts | 308° |
| 2026-04-26 23:26 | -32.33211 | 149.26296 | 33373 ft | 462 kts | 308° |
| 2026-04-26 23:26 | -32.31178 | 149.23369 | 33627 ft | 461 kts | 308° |
| 2026-04-26 23:26 | -32.29140 | 149.20441 | 33857 ft | 461 kts | 308° |
| 2026-04-26 23:26 | -32.27101 | 149.17513 | 34011 ft | 461 kts | 308° |
| 2026-04-26 23:27 | -32.25062 | 149.14586 | 34027 ft | 461 kts | 308° |
| 2026-04-26 23:27 | -32.20982 | 149.08732 | 34023 ft | 461 kts | 308° |
| 2026-04-26 23:28 | -32.16915 | 149.02896 | 34023 ft | 461 kts | 308° |
| 2026-04-26 23:28 | -32.12831 | 148.97067 | 34021 ft | 461 kts | 308° |
| 2026-04-26 23:29 | -32.08584 | 148.91411 | 34021 ft | 462 kts | 318° |
| 2026-04-26 23:29 | -32.03208 | 148.87367 | 34019 ft | 464 kts | 337° |
| 2026-04-26 23:30 | -31.96985 | 148.85370 | 34012 ft | 465 kts | 348° |
| 2026-04-26 23:30 | -31.90647 | 148.83828 | 34010 ft | 466 kts | 348° |
| 2026-04-26 23:31 | -31.84291 | 148.82276 | 34012 ft | 467 kts | 348° |
| 2026-04-26 23:31 | -31.77924 | 148.80735 | 34013 ft | 467 kts | 348° |
| 2026-04-26 23:32 | -31.71552 | 148.79194 | 34024 ft | 468 kts | 348° |
| 2026-04-26 23:32 | -31.65174 | 148.77656 | 34022 ft | 468 kts | 348° |
| 2026-04-26 23:33 | -31.58791 | 148.76118 | 34016 ft | 468 kts | 348° |
| 2026-04-26 23:33 | -31.52405 | 148.74574 | 34012 ft | 469 kts | 348° |
| 2026-04-26 23:34 | -31.46014 | 148.73036 | 34010 ft | 469 kts | 348° |
| 2026-04-26 23:34 | -31.39619 | 148.71493 | 34010 ft | 469 kts | 348° |
| 2026-04-26 23:35 | -31.33219 | 148.69958 | 34005 ft | 470 kts | 348° |
| 2026-04-26 23:35 | -31.26815 | 148.68425 | 34009 ft | 470 kts | 348° |
| 2026-04-26 23:36 | -31.20456 | 148.66897 | 34124 ft | 468 kts | 348° |
| 2026-04-26 23:36 | -31.17271 | 148.66133 | 34253 ft | 469 kts | 348° |
| 2026-04-26 23:36 | -31.14069 | 148.65371 | 34281 ft | 468 kts | 348° |
| 2026-04-26 23:37 | -31.07690 | 148.63854 | 34278 ft | 468 kts | 348° |
| 2026-04-26 23:37 | -31.01306 | 148.62336 | 34277 ft | 468 kts | 348° |
| 2026-04-26 23:38 | -30.94922 | 148.60808 | 34277 ft | 468 kts | 348° |
| 2026-04-26 23:38 | -30.88537 | 148.59281 | 34277 ft | 468 kts | 348° |
| 2026-04-26 23:39 | -30.82146 | 148.57763 | 34283 ft | 469 kts | 348° |
| 2026-04-26 23:39 | -30.75748 | 148.56257 | 34286 ft | 469 kts | 348° |
| 2026-04-26 23:40 | -30.70426 | 148.54999 | 34285 ft | 469 kts | 348° |
| 2026-04-26 23:40 | -30.64025 | 148.53479 | 34295 ft | 469 kts | 348° |
| 2026-04-26 23:41 | -30.57624 | 148.51959 | 34294 ft | 469 kts | 348° |
| 2026-04-26 23:41 | -30.51220 | 148.50447 | 34295 ft | 469 kts | 348° |
| 2026-04-26 23:42 | -30.43779 | 148.48697 | 34294 ft | 470 kts | 348° |
| 2026-04-26 23:42 | -30.35208 | 148.46679 | 34293 ft | 470 kts | 349° |
| 2026-04-26 23:43 | -30.28837 | 148.45189 | 34296 ft | 470 kts | 349° |
| 2026-04-26 23:43 | -30.22431 | 148.43688 | 34283 ft | 470 kts | 349° |
| 2026-04-26 23:44 | -30.16024 | 148.42189 | 34292 ft | 470 kts | 349° |
| 2026-04-26 23:44 | -30.09616 | 148.40686 | 34286 ft | 470 kts | 349° |
| 2026-04-26 23:45 | -30.03211 | 148.39193 | 34293 ft | 470 kts | 349° |
| 2026-04-26 23:45 | -29.96790 | 148.37699 | 34283 ft | 470 kts | 349° |
| 2026-04-26 23:46 | -29.90373 | 148.36202 | 34287 ft | 470 kts | 349° |
| 2026-04-26 23:46 | -29.83955 | 148.34695 | 34278 ft | 471 kts | 349° |
| 2026-04-26 23:47 | -29.77531 | 148.33201 | 34282 ft | 471 kts | 349° |
| 2026-04-26 23:47 | -29.71100 | 148.31723 | 34293 ft | 471 kts | 349° |
| 2026-04-26 23:48 | -29.64668 | 148.30234 | 34281 ft | 472 kts | 349° |
| 2026-04-26 23:48 | -29.58234 | 148.28731 | 34275 ft | 472 kts | 349° |
| 2026-04-26 23:49 | -29.51794 | 148.27237 | 34275 ft | 472 kts | 350° |
| 2026-04-26 23:49 | -29.45356 | 148.25756 | 34287 ft | 472 kts | 350° |
| 2026-04-26 23:50 | -29.38950 | 148.24280 | 34277 ft | 473 kts | 350° |
| 2026-04-26 23:50 | -29.32498 | 148.22791 | 34278 ft | 473 kts | 350° |
| 2026-04-26 23:51 | -29.26043 | 148.21308 | 34272 ft | 473 kts | 350° |
| 2026-04-26 23:51 | -29.19586 | 148.19825 | 34273 ft | 473 kts | 350° |
| 2026-04-26 23:52 | -29.13127 | 148.18344 | 34283 ft | 473 kts | 350° |
| 2026-04-26 23:52 | -29.06668 | 148.16862 | 34274 ft | 473 kts | 350° |
| 2026-04-26 23:53 | -29.00208 | 148.15387 | 34274 ft | 473 kts | 351° |
| 2026-04-26 23:53 | -28.93748 | 148.13918 | 34273 ft | 473 kts | 351° |
| 2026-04-26 23:54 | -28.87288 | 148.12442 | 34274 ft | 473 kts | 351° |
| 2026-04-26 23:54 | -28.80830 | 148.10967 | 34275 ft | 473 kts | 351° |
| 2026-04-26 23:55 | -28.74371 | 148.09499 | 34275 ft | 473 kts | 351° |
| 2026-04-26 23:55 | -28.67913 | 148.08034 | 34273 ft | 473 kts | 351° |
| 2026-04-26 23:56 | -28.61464 | 148.06570 | 34271 ft | 473 kts | 351° |
| 2026-04-26 23:56 | -28.55004 | 148.05099 | 34272 ft | 473 kts | 351° |
| 2026-04-26 23:57 | -28.48551 | 148.03638 | 34272 ft | 473 kts | 351° |
| 2026-04-26 23:57 | -28.42144 | 148.02191 | 34270 ft | 472 kts | 351° |
| 2026-04-26 23:58 | -28.35698 | 148.00729 | 34267 ft | 472 kts | 351° |
| 2026-04-26 23:58 | -28.29252 | 147.99275 | 34268 ft | 472 kts | 351° |
| 2026-04-26 23:59 | -28.22812 | 147.97833 | 34264 ft | 472 kts | 351° |
| 2026-04-26 23:59 | -28.16368 | 147.96392 | 34265 ft | 472 kts | 351° |
| 2026-04-27 00:00 | -28.09927 | 147.94938 | 34262 ft | 472 kts | 351° |
| 2026-04-27 00:00 | -28.03487 | 147.93479 | 34264 ft | 472 kts | 351° |
| 2026-04-27 00:01 | -27.97054 | 147.92041 | 34258 ft | 472 kts | 351° |
| 2026-04-27 00:01 | -27.90617 | 147.90603 | 34257 ft | 471 kts | 351° |
| 2026-04-27 00:02 | -27.84185 | 147.89164 | 34252 ft | 471 kts | 351° |
| 2026-04-27 00:02 | -27.77755 | 147.87731 | 34253 ft | 471 kts | 351° |
| 2026-04-27 00:03 | -27.71322 | 147.86296 | 34252 ft | 471 kts | 351° |
| 2026-04-27 00:03 | -27.64932 | 147.84867 | 34252 ft | 471 kts | 351° |
| 2026-04-27 00:04 | -27.58498 | 147.83427 | 34256 ft | 471 kts | 351° |
| 2026-04-27 00:04 | -27.52063 | 147.81995 | 34247 ft | 471 kts | 351° |
| 2026-04-27 00:05 | -27.45634 | 147.80574 | 34250 ft | 471 kts | 351° |
| 2026-04-27 00:05 | -27.39196 | 147.79147 | 34256 ft | 471 kts | 351° |
| 2026-04-27 00:06 | -27.32760 | 147.77719 | 34254 ft | 471 kts | 351° |
| 2026-04-27 00:06 | -27.26327 | 147.76291 | 34256 ft | 471 kts | 351° |
| 2026-04-27 00:07 | -27.19896 | 147.74870 | 34251 ft | 471 kts | 351° |
| 2026-04-27 00:07 | -27.13466 | 147.73452 | 34252 ft | 471 kts | 351° |
| 2026-04-27 00:08 | -27.07041 | 147.72034 | 34249 ft | 470 kts | 351° |
| 2026-04-27 00:08 | -27.00620 | 147.70626 | 34248 ft | 470 kts | 351° |
| 2026-04-27 00:09 | -26.94207 | 147.69217 | 34248 ft | 469 kts | 350° |
| 2026-04-27 00:09 | -26.87843 | 147.67818 | 34239 ft | 469 kts | 350° |
| 2026-04-27 00:10 | -26.81445 | 147.66401 | 34243 ft | 468 kts | 350° |
| 2026-04-27 00:10 | -26.75049 | 147.64997 | 34242 ft | 468 kts | 350° |
| 2026-04-27 00:11 | -26.68651 | 147.63605 | 34238 ft | 468 kts | 350° |
| 2026-04-27 00:11 | -26.62252 | 147.62211 | 34237 ft | 469 kts | 350° |
| 2026-04-27 00:12 | -26.55850 | 147.60813 | 34233 ft | 469 kts | 350° |
| 2026-04-27 00:12 | -26.49442 | 147.59414 | 34229 ft | 469 kts | 349° |
| 2026-04-27 00:13 | -26.43028 | 147.58005 | 34228 ft | 470 kts | 349° |
| 2026-04-27 00:13 | -26.36611 | 147.56614 | 34226 ft | 471 kts | 349° |
| 2026-04-27 00:14 | -26.30177 | 147.55218 | 34224 ft | 471 kts | 349° |
| 2026-04-27 00:14 | -26.23732 | 147.53811 | 34220 ft | 472 kts | 349° |
| 2026-04-27 00:15 | -26.17273 | 147.52402 | 34218 ft | 473 kts | 349° |
| 2026-04-27 00:15 | -26.10806 | 147.51002 | 34212 ft | 474 kts | 349° |
| 2026-04-27 00:16 | -26.04315 | 147.49602 | 34199 ft | 476 kts | 348° |
| 2026-04-27 00:16 | -25.97809 | 147.48202 | 34208 ft | 477 kts | 348° |
| 2026-04-27 00:17 | -25.91291 | 147.46791 | 34207 ft | 477 kts | 348° |
| 2026-04-27 00:17 | -25.84765 | 147.45376 | 34211 ft | 478 kts | 348° |
| 2026-04-27 00:18 | -25.78280 | 147.43976 | 34217 ft | 478 kts | 348° |
| 2026-04-27 00:18 | -25.71754 | 147.42573 | 34216 ft | 477 kts | 348° |
| 2026-04-27 00:19 | -25.65234 | 147.41169 | 34217 ft | 477 kts | 347° |
| 2026-04-27 00:19 | -25.58722 | 147.39763 | 34220 ft | 476 kts | 347° |
| 2026-04-27 00:20 | -25.52221 | 147.38367 | 34214 ft | 475 kts | 347° |
| 2026-04-27 00:20 | -25.45740 | 147.36982 | 34217 ft | 474 kts | 346° |
| 2026-04-27 00:21 | -25.39268 | 147.35602 | 34212 ft | 473 kts | 346° |
| 2026-04-27 00:21 | -25.32808 | 147.34223 | 34209 ft | 471 kts | 346° |
| 2026-04-27 00:22 | -25.26375 | 147.32849 | 34204 ft | 470 kts | 345° |
| 2026-04-27 00:22 | -25.19856 | 147.32117 | 34199 ft | 474 kts | 354° |
| 2026-04-27 00:23 | -25.13264 | 147.31851 | 34194 ft | 473 kts | 353° |
| 2026-04-27 00:23 | -25.06731 | 147.31590 | 34192 ft | 473 kts | 353° |
| 2026-04-27 00:24 | -25.00160 | 147.31330 | 34185 ft | 472 kts | 352° |
| 2026-04-27 00:24 | -24.93593 | 147.31057 | 34184 ft | 472 kts | 352° |
| 2026-04-27 00:25 | -24.87026 | 147.30792 | 34181 ft | 472 kts | 351° |
| 2026-04-27 00:25 | -24.80458 | 147.30524 | 34175 ft | 472 kts | 351° |
| 2026-04-27 00:26 | -24.73888 | 147.30249 | 34175 ft | 472 kts | 351° |
| 2026-04-27 00:26 | -24.67314 | 147.29986 | 34169 ft | 473 kts | 351° |
| 2026-04-27 00:27 | -24.60732 | 147.29725 | 34166 ft | 473 kts | 350° |
| 2026-04-27 00:27 | -24.54143 | 147.29457 | 34165 ft | 474 kts | 350° |
| 2026-04-27 00:28 | -24.47544 | 147.29189 | 34167 ft | 475 kts | 350° |
| 2026-04-27 00:28 | -24.42054 | 147.28974 | 34161 ft | 476 kts | 350° |
| 2026-04-27 00:29 | -24.34357 | 147.28658 | 34163 ft | 476 kts | 350° |
| 2026-04-27 00:29 | -24.27739 | 147.28395 | 34166 ft | 476 kts | 350° |
| 2026-04-27 00:30 | -24.22178 | 147.28173 | 34166 ft | 476 kts | 350° |
| 2026-04-27 00:30 | -24.15558 | 147.27913 | 34168 ft | 476 kts | 350° |
| 2026-04-27 00:31 | -24.08933 | 147.27652 | 34166 ft | 476 kts | 349° |
| 2026-04-27 00:31 | -24.02313 | 147.27387 | 34169 ft | 476 kts | 349° |
| 2026-04-27 00:32 | -23.95743 | 147.27119 | 34175 ft | 475 kts | 349° |
| 2026-04-27 00:32 | -23.89137 | 147.26853 | 34166 ft | 475 kts | 349° |
| 2026-04-27 00:33 | -23.82540 | 147.26592 | 34166 ft | 474 kts | 349° |
| 2026-04-27 00:33 | -23.75947 | 147.26332 | 34162 ft | 474 kts | 349° |
| 2026-04-27 00:34 | -23.69362 | 147.26067 | 34162 ft | 473 kts | 349° |
| 2026-04-27 00:34 | -23.62783 | 147.25803 | 34165 ft | 473 kts | 349° |
| 2026-04-27 00:35 | -23.56212 | 147.25540 | 34162 ft | 472 kts | 349° |
| 2026-04-27 00:35 | -23.49660 | 147.25283 | 34162 ft | 472 kts | 349° |
| 2026-04-27 00:36 | -23.43098 | 147.25028 | 34158 ft | 471 kts | 349° |
| 2026-04-27 00:36 | -23.36561 | 147.24768 | 34154 ft | 470 kts | 349° |
| 2026-04-27 00:37 | -23.30024 | 147.24510 | 34151 ft | 470 kts | 349° |
| 2026-04-27 00:37 | -23.23537 | 147.24249 | 34145 ft | 469 kts | 349° |
| 2026-04-27 00:38 | -23.17007 | 147.23994 | 34140 ft | 469 kts | 349° |
| 2026-04-27 00:38 | -23.10484 | 147.23740 | 34142 ft | 469 kts | 349° |
| 2026-04-27 00:39 | -23.03971 | 147.23479 | 34138 ft | 468 kts | 349° |
| 2026-04-27 00:39 | -22.97462 | 147.23226 | 34144 ft | 468 kts | 350° |
| 2026-04-27 00:40 | -22.90965 | 147.22973 | 34141 ft | 467 kts | 350° |
| 2026-04-27 00:40 | -22.84469 | 147.22716 | 34142 ft | 467 kts | 350° |
| 2026-04-27 00:41 | -22.77977 | 147.22465 | 34138 ft | 466 kts | 350° |
| 2026-04-27 00:41 | -22.71490 | 147.22206 | 34139 ft | 466 kts | 350° |
| 2026-04-27 00:42 | -22.65005 | 147.21945 | 34137 ft | 466 kts | 350° |
| 2026-04-27 00:42 | -22.58521 | 147.21689 | 34133 ft | 466 kts | 350° |
| 2026-04-27 00:43 | -22.52036 | 147.21441 | 34130 ft | 466 kts | 350° |
| 2026-04-27 00:43 | -22.45558 | 147.21198 | 34128 ft | 466 kts | 350° |
| 2026-04-27 00:44 | -22.39067 | 147.20944 | 34129 ft | 466 kts | 350° |
| 2026-04-27 00:44 | -22.32626 | 147.20687 | 34125 ft | 466 kts | 350° |
| 2026-04-27 00:45 | -22.26149 | 147.20431 | 34124 ft | 466 kts | 350° |
| 2026-04-27 00:45 | -22.19663 | 147.20177 | 34120 ft | 466 kts | 350° |
| 2026-04-27 00:46 | -22.13176 | 147.19930 | 34125 ft | 466 kts | 351° |
| 2026-04-27 00:46 | -22.06692 | 147.19678 | 34119 ft | 466 kts | 351° |
| 2026-04-27 00:47 | -22.00210 | 147.19426 | 34115 ft | 466 kts | 351° |
| 2026-04-27 00:47 | -21.93731 | 147.19176 | 34108 ft | 466 kts | 351° |
| 2026-04-27 00:48 | -21.87249 | 147.18930 | 34108 ft | 466 kts | 351° |
| 2026-04-27 00:48 | -21.80770 | 147.18678 | 34111 ft | 466 kts | 351° |
| 2026-04-27 00:49 | -21.74291 | 147.18427 | 34110 ft | 466 kts | 351° |
| 2026-04-27 00:49 | -21.67813 | 147.18176 | 34108 ft | 466 kts | 351° |
| 2026-04-27 00:50 | -21.58103 | 147.17803 | 34111 ft | 465 kts | 351° |
| 2026-04-27 00:51 | -21.51636 | 147.17559 | 34108 ft | 465 kts | 351° |
| 2026-04-27 00:51 | -21.45178 | 147.17305 | 34112 ft | 464 kts | 351° |
| 2026-04-27 00:52 | -21.38725 | 147.17050 | 34112 ft | 464 kts | 351° |
| 2026-04-27 00:52 | -21.32277 | 147.16808 | 34112 ft | 463 kts | 351° |
| 2026-04-27 00:53 | -21.25838 | 147.16566 | 34107 ft | 463 kts | 351° |
| 2026-04-27 00:53 | -21.19405 | 147.16323 | 34107 ft | 462 kts | 351° |
| 2026-04-27 00:54 | -21.13028 | 147.16075 | 34105 ft | 462 kts | 351° |
| 2026-04-27 00:54 | -21.06608 | 147.15826 | 34101 ft | 461 kts | 351° |
| 2026-04-27 00:55 | -21.00195 | 147.15578 | 34098 ft | 461 kts | 351° |
| 2026-04-27 00:55 | -20.93789 | 147.15338 | 34100 ft | 460 kts | 352° |
| 2026-04-27 00:56 | -20.87387 | 147.15102 | 34104 ft | 460 kts | 352° |
| 2026-04-27 00:56 | -20.80986 | 147.14847 | 34106 ft | 459 kts | 351° |
| 2026-04-27 00:57 | -20.74606 | 147.14593 | 34105 ft | 459 kts | 352° |
| 2026-04-27 00:57 | -20.68325 | 147.13867 | 34101 ft | 448 kts | 339° |
| 2026-04-27 00:58 | -20.62288 | 147.12247 | 34092 ft | 447 kts | 340° |
| 2026-04-27 00:58 | -20.56258 | 147.10623 | 34096 ft | 447 kts | 340° |
| 2026-04-27 00:59 | -20.50228 | 147.09011 | 34089 ft | 447 kts | 340° |
| 2026-04-27 00:59 | -20.44202 | 147.07411 | 34089 ft | 447 kts | 340° |
| 2026-04-27 01:00 | -20.38173 | 147.05806 | 34085 ft | 446 kts | 340° |
| 2026-04-27 01:00 | -20.32149 | 147.04191 | 34087 ft | 446 kts | 340° |
| 2026-04-27 01:01 | -20.26156 | 147.02592 | 34083 ft | 446 kts | 340° |
| 2026-04-27 01:01 | -20.20126 | 147.00992 | 34080 ft | 447 kts | 340° |
| 2026-04-27 01:02 | -20.14095 | 146.99389 | 34082 ft | 447 kts | 340° |
| 2026-04-27 01:02 | -20.08059 | 146.97786 | 34080 ft | 447 kts | 340° |
| 2026-04-27 01:03 | -20.02025 | 146.96170 | 34074 ft | 447 kts | 340° |
| 2026-04-27 01:03 | -19.95998 | 146.94556 | 34072 ft | 447 kts | 340° |
| 2026-04-27 01:04 | -19.89944 | 146.92954 | 34074 ft | 448 kts | 340° |
| 2026-04-27 01:04 | -19.83896 | 146.91362 | 34078 ft | 448 kts | 340° |
| 2026-04-27 01:05 | -19.78101 | 146.89147 | 34073 ft | 439 kts | 328° |
| 2026-04-27 01:05 | -19.72636 | 146.86240 | 34071 ft | 440 kts | 328° |
| 2026-04-27 01:06 | -19.67143 | 146.83357 | 34067 ft | 440 kts | 329° |
| 2026-04-27 01:06 | -19.61657 | 146.80487 | 34078 ft | 440 kts | 329° |
| 2026-04-27 01:07 | -19.56162 | 146.77610 | 34076 ft | 440 kts | 329° |
| 2026-04-27 01:07 | -19.50666 | 146.74729 | 34083 ft | 441 kts | 329° |
| 2026-04-27 01:08 | -19.45169 | 146.71844 | 34092 ft | 441 kts | 329° |
| 2026-04-27 01:08 | -19.39709 | 146.68974 | 34087 ft | 441 kts | 329° |
| 2026-04-27 01:09 | -19.34211 | 146.66088 | 34090 ft | 441 kts | 329° |
| 2026-04-27 01:09 | -19.28711 | 146.63205 | 34085 ft | 441 kts | 329° |
| 2026-04-27 01:10 | -19.23208 | 146.60333 | 34057 ft | 441 kts | 329° |
| 2026-04-27 01:10 | -19.17712 | 146.57463 | 34071 ft | 441 kts | 329° |
| 2026-04-27 01:11 | -19.12201 | 146.54587 | 34064 ft | 441 kts | 329° |
| 2026-04-27 01:11 | -19.06692 | 146.51710 | 34055 ft | 442 kts | 329° |
| 2026-04-27 01:12 | -19.01189 | 146.48831 | 34066 ft | 442 kts | 329° |
| 2026-04-27 01:12 | -18.95669 | 146.45964 | 34065 ft | 442 kts | 329° |
| 2026-04-27 01:13 | -18.90148 | 146.43094 | 34063 ft | 442 kts | 329° |
| 2026-04-27 01:13 | -18.84626 | 146.40219 | 34064 ft | 442 kts | 330° |
| 2026-04-27 01:14 | -18.79100 | 146.37353 | 34060 ft | 442 kts | 330° |
| 2026-04-27 01:14 | -18.73619 | 146.34510 | 33723 ft | 433 kts | 329° |
| 2026-04-27 01:14 | -18.70936 | 146.33118 | 33461 ft | 427 kts | 329° |
| 2026-04-27 01:15 | -18.68286 | 146.31744 | 33058 ft | 422 kts | 329° |
| 2026-04-27 01:15 | -18.65658 | 146.30380 | 32593 ft | 419 kts | 329° |
| 2026-04-27 01:15 | -18.63050 | 146.29024 | 32125 ft | 416 kts | 329° |
| 2026-04-27 01:15 | -18.60460 | 146.27677 | 31668 ft | 414 kts | 329° |
| 2026-04-27 01:16 | -18.57882 | 146.26342 | 31195 ft | 412 kts | 329° |
| 2026-04-27 01:16 | -18.56186 | 146.25466 | 30885 ft | 410 kts | 329° |
| 2026-04-27 01:16 | -18.53628 | 146.24146 | 30435 ft | 408 kts | 329° |
| 2026-04-27 01:16 | -18.51090 | 146.22831 | 29961 ft | 406 kts | 330° |
| 2026-04-27 01:17 | -18.48555 | 146.21518 | 29493 ft | 403 kts | 330° |
| 2026-04-27 01:17 | -18.46048 | 146.20220 | 29056 ft | 400 kts | 330° |
| 2026-04-27 01:17 | -18.43561 | 146.18933 | 28626 ft | 397 kts | 330° |
| 2026-04-27 01:17 | -18.40296 | 146.17244 | 28075 ft | 393 kts | 330° |
| 2026-04-27 01:18 | -18.38639 | 146.16387 | 27802 ft | 391 kts | 330° |
| 2026-04-27 01:18 | -18.36201 | 146.15125 | 27391 ft | 389 kts | 330° |
| 2026-04-27 01:18 | -18.33776 | 146.13869 | 26996 ft | 387 kts | 330° |
| 2026-04-27 01:18 | -18.31364 | 146.12621 | 26596 ft | 385 kts | 330° |
| 2026-04-27 01:19 | -18.28965 | 146.11383 | 26200 ft | 383 kts | 330° |
| 2026-04-27 01:19 | -18.26609 | 146.10168 | 25811 ft | 381 kts | 330° |
| 2026-04-27 01:19 | -18.24207 | 146.08928 | 25416 ft | 379 kts | 330° |
| 2026-04-27 01:19 | -18.21839 | 146.07707 | 25006 ft | 378 kts | 330° |
| 2026-04-27 01:20 | -18.19505 | 146.06507 | 24603 ft | 377 kts | 330° |
| 2026-04-27 01:20 | -18.17158 | 146.05302 | 24195 ft | 376 kts | 330° |
| 2026-04-27 01:20 | -18.14807 | 146.04094 | 23781 ft | 375 kts | 330° |
| 2026-04-27 01:20 | -18.12468 | 146.02891 | 23326 ft | 374 kts | 330° |
| 2026-04-27 01:21 | -18.10142 | 146.01691 | 22882 ft | 371 kts | 330° |
| 2026-04-27 01:21 | -18.07836 | 146.00499 | 22468 ft | 368 kts | 330° |
| 2026-04-27 01:21 | -18.05546 | 145.99315 | 22049 ft | 366 kts | 330° |
| 2026-04-27 01:21 | -18.03268 | 145.98131 | 21614 ft | 365 kts | 330° |
| 2026-04-27 01:22 | -18.00999 | 145.96945 | 21196 ft | 363 kts | 330° |
| 2026-04-27 01:22 | -17.98758 | 145.95776 | 20770 ft | 354 kts | 330° |
| 2026-04-27 01:22 | -17.96567 | 145.94637 | 20368 ft | 350 kts | 330° |
| 2026-04-27 01:22 | -17.94393 | 145.93509 | 19964 ft | 347 kts | 329° |
| 2026-04-27 01:23 | -17.92233 | 145.92390 | 19559 ft | 345 kts | 330° |
| 2026-04-27 01:23 | -17.90083 | 145.91281 | 19172 ft | 343 kts | 329° |
| 2026-04-27 01:23 | -17.87947 | 145.90182 | 18788 ft | 341 kts | 330° |
| 2026-04-27 01:23 | -17.85825 | 145.89091 | 18406 ft | 340 kts | 329° |
| 2026-04-27 01:24 | -17.83708 | 145.88004 | 17983 ft | 338 kts | 330° |
| 2026-04-27 01:24 | -17.81604 | 145.86922 | 17543 ft | 335 kts | 330° |
| 2026-04-27 01:24 | -17.79519 | 145.85843 | 17113 ft | 333 kts | 329° |
| 2026-04-27 01:24 | -17.77446 | 145.84769 | 16509 ft | 333 kts | 330° |
| 2026-04-27 01:25 | -17.75361 | 145.83679 | 15550 ft | 337 kts | 330° |
| 2026-04-27 01:25 | -17.73285 | 145.82586 | 14618 ft | 339 kts | 329° |
| 2026-04-27 01:25 | -17.71172 | 145.81469 | 13682 ft | 341 kts | 330° |
| 2026-04-27 01:25 | -17.69060 | 145.80334 | 12659 ft | 341 kts | 330° |
| 2026-04-27 01:26 | -17.66952 | 145.79175 | 11675 ft | 342 kts | 330° |
| 2026-04-27 01:26 | -17.64848 | 145.78001 | 10707 ft | 342 kts | 330° |
| 2026-04-27 01:26 | -17.62760 | 145.76804 | 9766 ft | 342 kts | 330° |
| 2026-04-27 01:26 | -17.60720 | 145.75590 | 9241 ft | 327 kts | 330° |
| 2026-04-27 01:27 | -17.58819 | 145.74437 | 9021 ft | 306 kts | 329° |
| 2026-04-27 01:27 | -17.56994 | 145.73323 | 8828 ft | 301 kts | 329° |
| 2026-04-27 01:27 | -17.55193 | 145.72219 | 8624 ft | 299 kts | 329° |
| 2026-04-27 01:27 | -17.53401 | 145.71114 | 8362 ft | 299 kts | 329° |
| 2026-04-27 01:28 | -17.51628 | 145.70012 | 8301 ft | 297 kts | 330° |
| 2026-04-27 01:28 | -17.49850 | 145.68896 | 8228 ft | 298 kts | 329° |
| 2026-04-27 01:28 | -17.48072 | 145.67775 | 8154 ft | 298 kts | 329° |
| 2026-04-27 01:28 | -17.46296 | 145.66657 | 8082 ft | 298 kts | 329° |
| 2026-04-27 01:29 | -17.44519 | 145.65543 | 8006 ft | 297 kts | 332° |
| 2026-04-27 01:29 | -17.42643 | 145.64638 | 7932 ft | 297 kts | 339° |
| 2026-04-27 01:29 | -17.40730 | 145.63830 | 7857 ft | 296 kts | 339° |
| 2026-04-27 01:29 | -17.38811 | 145.63037 | 7789 ft | 297 kts | 340° |
| 2026-04-27 01:30 | -17.36893 | 145.62239 | 7707 ft | 297 kts | 339° |
| 2026-04-27 01:30 | -17.34977 | 145.61442 | 7588 ft | 297 kts | 339° |
| 2026-04-27 01:30 | -17.33063 | 145.60644 | 7413 ft | 295 kts | 339° |
| 2026-04-27 01:30 | -17.31157 | 145.59847 | 7247 ft | 295 kts | 339° |
| 2026-04-27 01:31 | -17.29255 | 145.59046 | 7081 ft | 295 kts | 340° |
| 2026-04-27 01:31 | -17.27357 | 145.58238 | 6916 ft | 294 kts | 340° |
| 2026-04-27 01:31 | -17.25467 | 145.57423 | 6744 ft | 294 kts | 340° |
| 2026-04-27 01:31 | -17.23583 | 145.56613 | 6585 ft | 291 kts | 340° |
| 2026-04-27 01:32 | -17.21717 | 145.55806 | 6406 ft | 289 kts | 339° |
| 2026-04-27 01:32 | -17.19856 | 145.54995 | 6242 ft | 289 kts | 339° |
| 2026-04-27 01:32 | -17.18029 | 145.54199 | 6064 ft | 289 kts | 339° |
| 2026-04-27 01:32 | -17.16177 | 145.53398 | 5879 ft | 287 kts | 340° |
| 2026-04-27 01:33 | -17.14325 | 145.52601 | 5709 ft | 288 kts | 339° |
| 2026-04-27 01:33 | -17.12466 | 145.51797 | 5533 ft | 289 kts | 339° |
| 2026-04-27 01:33 | -17.10615 | 145.50993 | 5348 ft | 288 kts | 339° |
| 2026-04-27 01:33 | -17.08762 | 145.50198 | 5183 ft | 287 kts | 339° |
| 2026-04-27 01:34 | -17.06914 | 145.49407 | 5012 ft | 287 kts | 339° |
| 2026-04-27 01:34 | -17.05074 | 145.48621 | 4835 ft | 286 kts | 340° |
| 2026-04-27 01:34 | -17.03232 | 145.47833 | 4668 ft | 285 kts | 339° |
| 2026-04-27 01:34 | -17.01396 | 145.47045 | 4487 ft | 285 kts | 339° |
| 2026-04-27 01:35 | -16.99566 | 145.46265 | 4306 ft | 283 kts | 339° |
| 2026-04-27 01:35 | -16.97750 | 145.45497 | 4141 ft | 281 kts | 339° |
| 2026-04-27 01:35 | -16.95944 | 145.44740 | 4017 ft | 279 kts | 340° |
| 2026-04-27 01:35 | -16.94144 | 145.43983 | 4008 ft | 279 kts | 339° |
| 2026-04-27 01:36 | -16.92322 | 145.43267 | 4007 ft | 279 kts | 349° |
| 2026-04-27 01:36 | -16.90400 | 145.43133 | 4010 ft | 276 kts | 9° |
| 2026-04-27 01:36 | -16.88547 | 145.43597 | 4011 ft | 274 kts | 21° |
| 2026-04-27 01:36 | -16.86752 | 145.44259 | 4010 ft | 274 kts | 23° |
| 2026-04-27 01:37 | -16.84966 | 145.44950 | 4008 ft | 274 kts | 23° |
| 2026-04-27 01:37 | -16.83190 | 145.45650 | 4010 ft | 273 kts | 23° |
| 2026-04-27 01:37 | -16.81417 | 145.46356 | 4007 ft | 273 kts | 23° |
| 2026-04-27 01:37 | -16.79646 | 145.47054 | 4004 ft | 272 kts | 23° |
| 2026-04-27 01:38 | -16.77873 | 145.47754 | 4006 ft | 273 kts | 23° |
| 2026-04-27 01:38 | -16.76094 | 145.48462 | 4008 ft | 273 kts | 23° |
| 2026-04-27 01:38 | -16.74343 | 145.49155 | 4004 ft | 273 kts | 23° |
| 2026-04-27 01:38 | -16.72562 | 145.49864 | 3996 ft | 272 kts | 23° |
| 2026-04-27 01:39 | -16.70789 | 145.50568 | 4001 ft | 273 kts | 23° |
| 2026-04-27 01:39 | -16.69005 | 145.51275 | 4007 ft | 275 kts | 24° |
| 2026-04-27 01:39 | -16.67307 | 145.52155 | 3991 ft | 269 kts | 41° |
| 2026-04-27 01:39 | -16.66049 | 145.53567 | 4009 ft | 266 kts | 56° |
| 2026-04-27 01:40 | -16.64926 | 145.55102 | 3992 ft | 265 kts | 56° |
| 2026-04-27 01:40 | -16.63896 | 145.56684 | 3996 ft | 262 kts | 67° |
| 2026-04-27 01:40 | -16.63319 | 145.58459 | 3994 ft | 258 kts | 83° |
| 2026-04-27 01:40 | -16.63255 | 145.60312 | 3996 ft | 255 kts | 99° |
| 2026-04-27 01:41 | -16.63592 | 145.62126 | 3993 ft | 254 kts | 110° |
| 2026-04-27 01:41 | -16.64519 | 145.63659 | 3994 ft | 252 kts | 139° |
| 2026-04-27 01:41 | -16.66007 | 145.64594 | 3993 ft | 246 kts | 154° |
| 2026-04-27 01:41 | -16.67530 | 145.65280 | 3994 ft | 230 kts | 156° |
| 2026-04-27 01:42 | -16.68953 | 145.65884 | 3992 ft | 214 kts | 156° |
| 2026-04-27 01:42 | -16.70318 | 145.66465 | 3890 ft | 211 kts | 156° |
| 2026-04-27 01:42 | -16.71668 | 145.67036 | 3661 ft | 208 kts | 156° |
| 2026-04-27 01:42 | -16.72965 | 145.67592 | 3396 ft | 192 kts | 156° |
| 2026-04-27 01:43 | -16.74145 | 145.68110 | 3070 ft | 176 kts | 156° |
| 2026-04-27 01:43 | -16.75232 | 145.68578 | 2698 ft | 163 kts | 156° |
| 2026-04-27 01:43 | -16.76187 | 145.69141 | 2331 ft | 154 kts | 135° |
| 2026-04-27 01:43 | -16.76961 | 145.69876 | 2065 ft | 149 kts | 151° |
| 2026-04-27 01:44 | -16.77881 | 145.70356 | 1856 ft | 150 kts | 152° |
| 2026-04-27 01:44 | -16.78844 | 145.70830 | 1657 ft | 152 kts | 155° |
| 2026-04-27 01:44 | -16.79793 | 145.71276 | 1444 ft | 149 kts | 156° |
| 2026-04-27 01:44 | -16.80707 | 145.71696 | 1272 ft | 140 kts | 155° |
| 2026-04-27 01:45 | -16.81599 | 145.72102 | 1080 ft | 140 kts | 155° |
| 2026-04-27 01:45 | -16.82489 | 145.72505 | 900 ft | 138 kts | 157° |
| 2026-04-27 01:45 | -16.83360 | 145.72900 | 719 ft | 136 kts | 156° |
| 2026-04-27 01:45 | -16.84165 | 145.73263 | 569 ft | 135 kts | 157° |
| 2026-04-27 01:46 | -16.84958 | 145.73623 | 403 ft | 137 kts | 159° |
| 2026-04-27 01:46 | -16.85782 | 145.73995 | 236 ft | 137 kts | 158° |
| 2026-04-27 01:46 | -16.86669 | 145.74396 | 48 ft | 138 kts | 157° |
| 2026-04-27 01:46 | -16.87493 | 145.74766 | 18 ft | 115 kts | 155° |
| 2026-04-27 01:47 | -16.88031 | 145.75009 | 17 ft | 32 kts | 156° |
| 2026-04-27 01:47 | -16.88215 | 145.75094 | 18 ft | 26 kts | 158° |
| 2026-04-27 01:47 | -16.88327 | 145.75147 | 18 ft | 15 kts | 152° |
| 2026-04-27 01:47 | -16.88350 | 145.75236 | 17 ft | 11 kts | 69° |
| 2026-04-27 01:48 | -16.88312 | 145.75308 | 16 ft | 12 kts | 37° |
| 2026-04-27 01:48 | -16.88233 | 145.75292 | 16 ft | 13 kts | 335° |
| 2026-04-27 01:48 | -16.88150 | 145.75255 | 16 ft | 13 kts | 335° |
| 2026-04-27 01:48 | -16.88062 | 145.75214 | 16 ft | 14 kts | 336° |
| 2026-04-27 01:49 | -16.87971 | 145.75174 | 16 ft | 13 kts | 337° |
| 2026-04-27 01:49 | -16.87894 | 145.75195 | 16 ft | 12 kts | 52° |
| 2026-04-27 01:49 | -16.87832 | 145.75212 | 16 ft | 7 kts | 3° |
| 2026-04-27 01:49 | -16.87798 | 145.75249 | 16 ft | 8 kts | 63° |
| 2026-04-27 01:50 | -16.87786 | 145.75278 | 16 ft | 0 kts | 67° |
| 2026-04-27 01:50 | -16.87783 | 145.75285 | 16 ft | 1 kts | 65° |
| 2026-04-27 01:50 | -16.87779 | 145.75296 | 18 ft | 1 kts | 69° |
| 2026-04-27 01:50 | -16.87778 | 145.75298 | 17 ft | 0 kts | 68° |